createdAt,value
2023-01-11T00:02:13.520Z,3.42
2023-01-11T00:04:40.380Z,3.25
2023-01-11T00:07:07.062Z,3.47
2023-01-11T00:09:33.754Z,3.05
2023-01-11T00:12:00.462Z,2.45
2023-01-11T00:14:27.191Z,2.80
2023-01-11T00:16:53.832Z,3.55
2023-01-11T00:19:20.503Z,3.72
2023-01-11T00:21:49.391Z,3.63
2023-01-11T00:24:16.143Z,3.03
2023-01-11T00:26:42.788Z,2.42
2023-01-11T00:29:09.427Z,3.38
2023-01-11T00:31:36.168Z,3.00
2023-01-11T00:34:02.889Z,2.42
2023-01-11T00:36:29.593Z,2.67
2023-01-11T00:38:56.369Z,2.15
2023-01-11T00:41:42.204Z,2.75
2023-01-11T00:44:29.120Z,2.88
2023-01-11T00:47:14.688Z,2.65
2023-01-11T00:49:41.726Z,2.97
2023-01-11T00:52:09.582Z,2.88
2023-01-11T00:54:38.091Z,2.22
2023-01-11T00:57:07.153Z,2.22
2023-01-11T00:59:34.952Z,2.65
2023-01-11T01:02:01.822Z,2.33
2023-01-11T01:04:28.555Z,2.30
2023-01-11T01:06:55.325Z,1.50
2023-01-11T01:09:22.196Z,2.25
2023-01-11T01:11:49.128Z,1.90
2023-01-11T01:14:31.278Z,2.17
2023-01-11T01:17:01.532Z,2.15
2023-01-11T01:19:29.809Z,1.88
2023-01-11T01:21:58.079Z,1.92
2023-01-11T01:24:28.236Z,1.75
2023-01-11T01:26:56.181Z,1.90
2023-01-11T01:29:22.950Z,1.98
2023-01-11T01:31:49.617Z,2.28
2023-01-11T01:34:16.796Z,2.60
2023-01-11T01:36:43.876Z,2.35
2023-01-11T01:39:11.391Z,2.38
2023-01-11T01:41:38.438Z,2.08
2023-01-11T01:44:26.322Z,2.67
2023-01-11T01:46:53.005Z,2.17
2023-01-11T01:49:19.845Z,2.38
2023-01-11T01:51:54.659Z,2.60
2023-01-11T01:54:25.905Z,2.25
2023-01-11T01:56:56.933Z,2.08
2023-01-11T01:59:26.899Z,3.53
2023-01-11T02:01:54.064Z,2.50
2023-01-11T02:04:24.569Z,2.38
2023-01-11T02:06:56.634Z,2.38
2023-01-11T02:09:32.193Z,1.90
2023-01-11T02:11:59.909Z,2.15
2023-01-11T02:14:29.162Z,2.08
2023-01-11T02:16:55.910Z,2.22
2023-01-11T02:19:40.903Z,1.92
2023-01-11T02:22:22.995Z,1.92
2023-01-11T02:25:27.523Z,2.03
2023-01-11T02:28:22.800Z,2.53
2023-01-11T02:30:55.390Z,2.65
2023-01-11T02:33:27.341Z,2.20
2023-01-11T02:36:17.620Z,3.05
2023-01-11T02:39:02.392Z,2.03
2023-01-11T02:42:00.030Z,2.40
2023-01-11T02:45:03.640Z,2.50
2023-01-11T02:47:36.343Z,2.10
2023-01-11T02:50:11.883Z,2.58
2023-01-11T02:52:49.452Z,2.80
2023-01-11T02:55:21.883Z,2.53
2023-01-11T02:57:49.575Z,2.20
2023-01-11T03:00:17.944Z,2.78
2023-01-11T03:02:44.840Z,2.40
2023-01-11T03:05:15.430Z,2.85
2023-01-11T03:08:01.814Z,2.45
2023-01-11T03:10:57.679Z,2.53
2023-01-11T03:13:40.803Z,2.83
2023-01-11T03:16:46.158Z,2.20
2023-01-11T03:19:31.003Z,2.30
2023-01-11T03:22:40.781Z,2.15
2023-01-11T03:28:04.408Z,3.05
2023-01-11T03:30:37.778Z,2.33
2023-01-11T03:33:12.511Z,2.53
2023-01-11T03:36:11.340Z,2.10
2023-01-11T03:39:00.491Z,2.38
2023-01-11T03:41:32.418Z,2.35
2023-01-11T03:44:01.273Z,2.38
2023-01-11T03:46:31.805Z,2.50
2023-01-11T03:49:18.724Z,3.83
2023-01-11T03:51:47.155Z,2.28
2023-01-11T03:54:17.083Z,2.88
2023-01-11T03:57:07.289Z,2.50
2023-01-11T03:59:34.703Z,2.38
2023-01-11T04:04:28.501Z,3.08
2023-01-11T04:06:55.311Z,2.13
2023-01-11T04:09:22.173Z,2.35
2023-01-11T04:11:49.001Z,2.63
2023-01-11T04:14:15.885Z,2.30
2023-01-11T04:16:45.484Z,2.10
2023-01-11T04:19:12.192Z,1.73
2023-01-11T04:21:38.900Z,2.28
2023-01-11T04:24:05.823Z,2.22
2023-01-11T04:26:33.115Z,2.47
2023-01-11T04:31:26.394Z,1.90
2023-01-11T04:33:53.073Z,1.95
2023-01-11T04:36:19.735Z,1.70
2023-01-11T04:38:46.461Z,2.13
2023-01-11T04:41:31.885Z,2.17
2023-01-11T04:43:58.720Z,2.55
2023-01-11T04:46:25.674Z,1.58
2023-01-11T04:48:52.519Z,2.03
2023-01-11T04:51:19.230Z,2.15
2023-01-11T04:53:49.037Z,1.40
2023-01-11T04:56:16.257Z,2.05
2023-01-11T04:58:43.108Z,2.35
2023-01-11T05:01:16.395Z,2.35
2023-01-11T05:03:44.116Z,2.70
2023-01-11T05:06:11.760Z,1.85
2023-01-11T05:08:39.037Z,1.95
2023-01-11T05:11:07.404Z,1.60
2023-01-11T05:13:43.460Z,2.30
2023-01-11T05:16:24.023Z,2.22
2023-01-11T05:18:55.691Z,3.08
2023-01-11T05:21:25.879Z,2.13
2023-01-11T05:23:53.139Z,1.98
2023-01-11T05:26:25.232Z,1.90
2023-01-11T05:28:52.632Z,2.03
2023-01-11T05:33:46.069Z,1.73
2023-01-11T05:36:14.968Z,2.15
2023-01-11T05:38:41.989Z,2.58
2023-01-11T05:41:10.151Z,2.42
2023-01-11T05:43:55.478Z,2.20
2023-01-11T05:46:23.253Z,2.00
2023-01-11T05:48:50.182Z,2.17
2023-01-11T05:51:17.229Z,1.70
2023-01-11T05:53:44.130Z,1.55
2023-01-11T05:56:10.807Z,1.70
2023-01-11T05:58:37.515Z,1.80
2023-01-11T06:01:04.403Z,2.10
2023-01-11T06:03:31.139Z,2.60
2023-01-11T06:05:59.601Z,1.77
2023-01-11T06:08:26.659Z,1.77
2023-01-11T06:10:54.667Z,1.88
2023-01-11T06:13:28.425Z,2.17
2023-01-11T06:16:07.128Z,2.08
2023-01-11T06:18:39.860Z,2.70
2023-01-11T06:21:07.480Z,2.60
2023-01-11T06:23:36.774Z,2.25
2023-01-11T06:26:05.487Z,2.03
2023-01-11T06:28:32.393Z,2.90
2023-01-11T06:30:59.930Z,2.40
2023-01-11T06:33:28.128Z,3.35
2023-01-11T06:35:55.867Z,2.70
2023-01-11T06:38:25.147Z,2.83
2023-01-11T06:40:53.436Z,3.30
2023-01-11T06:43:20.414Z,3.17
2023-01-11T06:45:47.167Z,3.15
2023-01-11T06:48:13.898Z,3.35
2023-01-11T06:50:40.732Z,3.78
2023-01-11T06:53:07.568Z,2.45
2023-01-11T06:55:34.339Z,1.58
2023-01-11T06:58:01.135Z,2.55
2023-01-11T07:00:27.955Z,2.60
2023-01-11T07:02:54.796Z,2.50
2023-01-11T07:05:21.874Z,2.45
2023-01-11T07:07:48.627Z,2.50
2023-01-11T07:10:16.325Z,2.22
2023-01-11T07:12:43.059Z,4.10
2023-01-11T07:15:10.511Z,2.25
2023-01-11T07:17:37.637Z,3.17
2023-01-11T07:20:05.944Z,2.80
2023-01-11T07:22:36.627Z,2.65
2023-01-11T07:25:04.765Z,3.63
2023-01-11T07:27:31.999Z,3.72
2023-01-11T07:30:01.465Z,4.63
2023-01-11T07:32:28.580Z,2.83
2023-01-11T07:34:55.930Z,2.75
2023-01-11T07:37:28.935Z,4.07
2023-01-11T07:39:56.159Z,3.55
2023-01-11T07:42:41.563Z,2.63
2023-01-11T07:45:08.713Z,3.45
2023-01-11T07:47:35.410Z,3.63
2023-01-11T07:50:02.126Z,2.97
2023-01-11T07:52:28.811Z,3.35
2023-01-11T07:54:55.481Z,3.45
2023-01-11T07:57:22.173Z,2.72
2023-01-11T07:59:48.839Z,2.22
2023-01-11T08:02:15.525Z,3.10
2023-01-11T08:04:42.249Z,4.00
2023-01-11T08:07:08.954Z,2.80
2023-01-11T08:09:35.651Z,1.85
2023-01-11T08:12:21.020Z,3.65
2023-01-11T08:14:47.715Z,4.13
2023-01-11T08:17:15.949Z,3.58
2023-01-11T08:19:43.338Z,3.38
2023-01-11T08:24:37.050Z,3.15
2023-01-11T08:27:04.313Z,3.30
2023-01-11T08:31:59.267Z,2.97
2023-01-11T08:34:27.661Z,3.45
2023-01-11T08:36:56.647Z,3.15
2023-01-11T08:39:24.360Z,3.15
2023-01-11T08:41:51.100Z,3.15
2023-01-11T08:44:29.070Z,2.67
2023-01-11T08:46:59.881Z,3.20
2023-01-11T08:49:26.573Z,3.42
2023-01-11T08:51:53.259Z,3.95
2023-01-11T08:54:19.928Z,2.85
2023-01-11T08:56:46.676Z,3.38
2023-01-11T08:59:13.637Z,3.42
2023-01-11T09:01:40.406Z,3.90
2023-01-11T09:04:19.391Z,3.38
2023-01-11T09:06:50.117Z,2.83
2023-01-11T09:09:16.903Z,2.88
2023-01-11T09:11:57.043Z,3.25
2023-01-11T09:14:25.761Z,6.13
2023-01-11T09:16:53.847Z,4.30
2023-01-11T09:19:21.034Z,4.35
2023-01-11T09:21:48.013Z,3.83
2023-01-11T09:24:15.029Z,3.65
2023-01-11T09:26:43.430Z,3.53
2023-01-11T09:29:11.097Z,3.65
2023-01-11T09:31:38.111Z,4.00
2023-01-11T09:34:05.422Z,3.65
2023-01-11T09:36:33.295Z,3.50
2023-01-11T09:39:02.115Z,3.80
2023-01-11T09:41:40.814Z,4.53
2023-01-11T09:44:15.938Z,4.85
2023-01-11T09:46:48.284Z,6.22
2023-01-11T09:49:25.119Z,3.17
2023-01-11T09:51:53.695Z,3.35
2023-01-11T09:54:26.835Z,2.75
2023-01-11T09:57:13.882Z,4.03
2023-01-11T09:59:56.952Z,3.70
2023-01-11T10:02:51.406Z,4.07
2023-01-11T10:05:38.452Z,4.30
2023-01-11T10:18:31.221Z,3.10
2023-01-11T10:18:40.471Z,3.15
2023-01-11T10:21:05.398Z,2.50
2023-01-11T10:24:02.742Z,3.05
2023-01-11T10:26:37.202Z,3.35
2023-01-11T10:29:22.224Z,2.72
2023-01-11T10:32:13.586Z,2.83
2023-01-11T10:35:00.640Z,2.90
2023-01-11T10:37:48.093Z,3.25
2023-01-11T10:41:06.800Z,2.13
2023-01-11T10:43:41.471Z,2.67
2023-01-11T10:46:13.463Z,3.00
2023-01-11T10:48:42.557Z,3.63
2023-01-11T10:51:29.823Z,2.60
2023-01-11T10:54:26.975Z,2.90
2023-01-11T10:57:13.335Z,2.33
2023-01-11T10:59:58.946Z,3.22
2023-01-11T11:02:52.522Z,2.83
2023-01-11T11:05:38.470Z,2.85
2023-01-11T11:08:14.778Z,2.92
2023-01-11T11:10:59.299Z,2.72
2023-01-11T11:13:34.404Z,2.80
2023-01-11T11:16:22.951Z,2.92
2023-01-11T11:18:52.049Z,5.03
2023-01-11T11:21:34.094Z,4.70
2023-01-11T11:24:04.130Z,3.10
2023-01-11T11:26:44.216Z,3.10
2023-01-11T11:29:20.006Z,3.90
2023-01-11T11:31:47.252Z,3.22
2023-01-11T11:34:19.843Z,2.05
2023-01-11T11:36:49.649Z,4.30
2023-01-11T11:39:27.282Z,3.45
2023-01-11T11:41:56.385Z,2.63
2023-01-11T11:44:26.118Z,3.17
2023-01-11T11:47:15.732Z,3.03
2023-01-11T11:49:42.845Z,2.33
2023-01-11T11:52:14.848Z,1.88
2023-01-11T11:54:49.603Z,2.10
2023-01-11T11:57:22.986Z,2.58
2023-01-11T11:59:54.303Z,3.30
2023-01-11T12:02:29.524Z,3.88
2023-01-11T12:04:59.432Z,4.13
2023-01-11T12:07:40.460Z,2.70
2023-01-11T12:10:19.123Z,2.80
2023-01-11T12:12:51.807Z,2.60
2023-01-11T12:15:40.445Z,2.50
2023-01-11T12:18:46.152Z,2.65
2023-01-11T12:21:22.260Z,2.45
2023-01-11T12:24:08.378Z,2.20
2023-01-11T12:27:04.989Z,2.80
2023-01-11T12:29:40.536Z,1.77
2023-01-11T12:32:14.817Z,1.63
2023-01-11T12:34:57.583Z,2.53
2023-01-11T12:37:48.874Z,2.35
2023-01-11T12:40:25.664Z,3.00
2023-01-11T12:43:06.163Z,2.45
2023-01-11T12:45:35.988Z,2.80
2023-01-11T12:48:19.623Z,2.75
2023-01-11T12:51:04.886Z,2.30
2023-01-11T12:53:41.805Z,1.98
2023-01-11T12:56:30.033Z,1.98
2023-01-11T12:59:18.005Z,4.38
2023-01-11T13:02:07.649Z,3.28
2023-01-11T13:04:43.104Z,6.35
2023-01-11T13:07:36.760Z,2.67
2023-01-11T13:10:11.162Z,2.80
2023-01-11T13:12:46.777Z,3.80
2023-01-11T13:15:42.122Z,2.95
2023-01-11T13:18:24.504Z,3.38
2023-01-11T13:21:17.025Z,2.65
2023-01-11T13:23:46.415Z,2.58
2023-01-11T13:26:27.569Z,2.20
2023-01-11T13:29:03.284Z,2.72
2023-01-11T13:31:33.412Z,2.15
2023-01-11T13:34:22.831Z,3.22
2023-01-11T13:36:58.192Z,3.35
2023-01-11T13:39:47.464Z,3.67
2023-01-11T13:43:11.207Z,3.05
2023-01-11T13:45:45.239Z,3.35
2023-01-11T13:48:25.538Z,3.78
2023-01-11T13:51:02.492Z,3.08
2023-01-11T13:53:42.196Z,2.45
2023-01-11T13:56:18.749Z,2.90
2023-01-11T13:58:50.981Z,2.25
2023-01-11T14:01:21.987Z,2.10
2023-01-11T14:03:56.660Z,2.60
2023-01-11T14:06:42.408Z,2.60
2023-01-11T14:09:27.892Z,2.10
2023-01-11T14:12:03.465Z,2.75
2023-01-11T14:14:53.064Z,2.40
2023-01-11T14:17:45.263Z,2.40
2023-01-11T14:20:51.397Z,3.38
2023-01-11T14:23:21.315Z,3.08
2023-01-11T14:26:09.856Z,2.90
2023-01-11T14:31:55.124Z,3.22
2023-01-11T14:34:51.899Z,2.90
2023-01-11T14:38:00.079Z,3.53
2023-01-11T14:40:48.569Z,3.90
2023-01-11T14:46:21.787Z,3.40
2023-01-11T14:49:10.668Z,5.40
2023-01-11T14:51:56.406Z,4.55
2023-01-11T14:54:40.428Z,2.33
2023-01-11T14:57:36.091Z,3.00
2023-01-11T15:00:05.528Z,3.20
2023-01-11T15:02:32.713Z,3.40
2023-01-11T15:04:59.716Z,2.85
2023-01-11T15:07:29.237Z,3.47
2023-01-11T15:09:58.290Z,4.38
2023-01-11T15:12:39.185Z,4.22
2023-01-11T15:15:18.517Z,4.50
2023-01-11T15:18:04.714Z,4.20
2023-01-11T15:20:33.599Z,4.30
2023-01-11T15:23:03.236Z,4.45
2023-01-11T15:25:34.708Z,5.18
2023-01-11T15:28:18.350Z,4.65
2023-01-11T15:30:52.527Z,4.05
2023-01-11T15:33:19.400Z,3.53
2023-01-11T15:36:06.776Z,3.63
2023-01-11T15:38:59.367Z,5.25
2023-01-11T15:41:48.943Z,4.35
2023-01-11T15:44:53.143Z,4.30
2023-01-11T15:47:38.476Z,4.40
2023-01-11T15:50:38.439Z,4.10
2023-01-11T15:53:42.983Z,4.72
2023-01-11T15:56:35.036Z,5.32
2023-01-11T15:59:50.999Z,4.25
2023-01-11T16:03:04.586Z,4.15
2023-01-11T16:05:36.995Z,4.07
2023-01-11T16:08:33.135Z,4.15
2023-01-11T16:11:15.098Z,4.40
2023-01-11T16:14:23.214Z,4.30
2023-01-11T16:16:55.692Z,4.60
2023-01-11T16:19:25.815Z,6.03
2023-01-11T16:21:59.375Z,6.15
2023-01-11T16:24:29.437Z,5.53
2023-01-11T16:26:59.289Z,6.00
2023-01-11T16:29:29.939Z,3.88
2023-01-11T16:32:02.750Z,4.40
2023-01-11T16:34:39.566Z,4.70
2023-01-11T16:37:33.374Z,4.90
2023-01-11T16:40:08.694Z,5.50
2023-01-11T16:42:42.396Z,6.22
2023-01-11T16:45:15.474Z,5.13
2023-01-11T16:47:42.143Z,5.43
2023-01-11T16:50:14.713Z,5.40
2023-01-11T16:53:02.264Z,5.55
2023-01-11T16:55:39.849Z,6.53
2023-01-11T16:58:26.246Z,5.70
2023-01-11T17:01:05.025Z,6.60
2023-01-11T17:03:31.811Z,7.47
2023-01-11T17:05:58.497Z,11.90
2023-01-11T17:08:34.699Z,9.05
2023-01-11T17:11:08.666Z,7.50
2023-01-11T17:13:59.542Z,7.65
2023-01-11T17:16:31.902Z,6.78
2023-01-11T17:19:06.508Z,6.78
2023-01-11T17:21:33.235Z,7.35
2023-01-11T17:24:03.342Z,7.85
2023-01-11T17:26:35.653Z,9.45
2023-01-11T17:29:02.647Z,63.25
2023-01-11T17:31:32.369Z,42.85
2023-01-11T17:34:08.524Z,9.35
2023-01-11T17:36:36.530Z,6.05
2023-01-11T17:39:05.462Z,6.43
2023-01-11T17:41:51.562Z,5.57
2023-01-11T17:44:39.529Z,6.38
2023-01-11T17:47:10.690Z,11.55
2023-01-11T17:49:38.297Z,16.10
2023-01-11T17:52:10.061Z,14.10
2023-01-11T17:54:36.847Z,16.63
2023-01-11T17:57:03.679Z,14.02
2023-01-11T17:59:30.608Z,10.88
2023-01-11T18:02:10.999Z,9.02
2023-01-11T18:04:37.943Z,10.82
2023-01-11T18:07:17.355Z,10.60
2023-01-11T18:09:57.241Z,15.65
2023-01-11T18:12:30.396Z,10.95
2023-01-11T18:15:00.196Z,10.18
2023-01-11T18:17:33.098Z,8.40
2023-01-11T18:20:01.223Z,9.48
2023-01-11T18:22:33.179Z,9.35
2023-01-11T18:25:04.230Z,8.10
2023-01-11T18:27:35.178Z,9.00
2023-01-11T18:30:08.464Z,9.45
2023-01-11T18:32:41.988Z,10.43
2023-01-11T18:35:18.921Z,10.65
2023-01-11T18:37:46.294Z,9.68
2023-01-11T18:40:17.967Z,10.23
2023-01-11T18:42:51.097Z,9.52
2023-01-11T18:45:17.968Z,9.68
2023-01-11T18:47:54.727Z,8.90
2023-01-11T18:50:21.508Z,9.10
2023-01-11T18:52:50.569Z,9.30
2023-01-11T18:55:17.690Z,6.75
2023-01-11T18:57:44.432Z,10.10
2023-01-11T19:00:15.228Z,6.82
2023-01-11T19:02:43.920Z,9.45
2023-01-11T19:05:13.244Z,7.82
2023-01-11T19:07:40.037Z,7.38
2023-01-11T19:10:07.404Z,7.20
2023-01-11T19:15:00.732Z,9.57
2023-01-11T19:17:28.474Z,9.68
2023-01-11T19:19:55.179Z,8.38
2023-01-11T19:22:24.563Z,8.50
2023-01-11T19:24:53.759Z,8.80
2023-01-11T19:27:20.545Z,12.30
2023-01-11T19:29:47.248Z,11.95
2023-01-11T19:32:15.600Z,9.23
2023-01-11T19:34:42.756Z,9.90
2023-01-11T19:37:09.550Z,8.18
2023-01-11T19:39:36.348Z,9.18
2023-01-11T19:42:03.291Z,8.43
2023-01-11T19:44:35.913Z,8.20
2023-01-11T19:47:12.360Z,10.52
2023-01-11T19:49:40.836Z,10.03
2023-01-11T19:52:14.540Z,12.48
2023-01-11T19:54:42.517Z,13.95
2023-01-11T19:57:14.185Z,12.48
2023-01-11T19:59:41.373Z,11.32
2023-01-11T20:02:09.858Z,10.98
2023-01-11T20:04:37.248Z,10.60
2023-01-11T20:07:04.577Z,10.65
2023-01-11T20:11:58.812Z,11.68
2023-01-11T20:14:25.689Z,11.48
2023-01-11T20:16:52.384Z,10.10
2023-01-11T20:19:19.063Z,7.25
2023-01-11T20:21:45.843Z,11.80
2023-01-11T20:24:14.336Z,12.27
2023-01-11T20:26:42.089Z,11.07
2023-01-11T20:29:09.232Z,12.13
2023-01-11T20:31:36.285Z,13.02
2023-01-11T20:34:08.573Z,14.70
2023-01-11T20:36:35.304Z,12.25
2023-01-11T20:39:02.396Z,9.60
2023-01-11T20:41:47.037Z,9.57
2023-01-11T20:44:19.135Z,8.43
2023-01-11T20:46:48.091Z,7.82
2023-01-11T20:49:15.832Z,9.40
2023-01-11T20:51:43.397Z,9.07
2023-01-11T20:54:10.401Z,9.50
2023-01-11T20:56:38.563Z,11.75
2023-01-11T20:59:09.569Z,11.18
2023-01-11T21:01:37.078Z,11.32
2023-01-11T21:04:06.839Z,12.65
2023-01-11T21:06:35.991Z,12.52
2023-01-11T21:09:03.408Z,11.23
2023-01-11T21:14:02.192Z,10.68
2023-01-11T21:16:30.075Z,9.68
2023-01-11T21:18:59.064Z,9.75
2023-01-11T21:21:26.683Z,10.82
2023-01-11T21:23:55.638Z,11.88
2023-01-11T21:26:23.141Z,11.88
2023-01-11T21:28:52.096Z,12.98
2023-01-11T21:31:59.238Z,12.07
2023-01-11T21:34:25.934Z,11.60
2023-01-11T21:36:52.699Z,13.73
2023-01-11T21:39:19.486Z,12.30
2023-01-11T21:41:55.291Z,12.50
2023-01-11T21:44:27.147Z,13.23
2023-01-11T21:46:54.059Z,10.77
2023-01-11T21:49:22.424Z,12.20
2023-01-11T21:51:49.119Z,12.10
2023-01-11T21:54:18.799Z,10.55
2023-01-11T21:56:49.181Z,11.48
2023-01-11T21:59:16.364Z,11.63
2023-01-11T22:01:45.132Z,11.65
2023-01-11T22:04:14.576Z,11.55
2023-01-11T22:06:43.776Z,11.43
2023-01-11T22:09:11.852Z,12.55
2023-01-11T22:11:39.300Z,13.43
2023-01-11T22:14:08.401Z,12.77
2023-01-11T22:16:35.794Z,12.77
2023-01-11T22:19:03.629Z,12.20
2023-01-11T22:21:30.377Z,11.35
2023-01-11T22:23:58.803Z,11.60
2023-01-11T22:26:27.080Z,11.23
2023-01-11T22:29:14.166Z,11.00
2023-01-11T22:31:54.914Z,11.55
2023-01-11T22:34:23.162Z,11.40
2023-01-11T22:36:50.098Z,11.43
2023-01-11T22:39:19.311Z,10.63
2023-01-11T22:41:47.824Z,10.63
2023-01-11T22:44:14.864Z,10.95
2023-01-11T22:46:42.331Z,12.02
2023-01-11T22:49:09.531Z,10.55
2023-01-11T22:51:36.558Z,11.43
2023-01-11T22:54:04.353Z,10.98
2023-01-11T22:56:31.914Z,10.93
2023-01-11T22:58:59.559Z,11.43
2023-01-11T23:01:32.579Z,10.55
2023-01-11T23:04:01.052Z,11.13
2023-01-11T23:06:33.667Z,10.10
2023-01-11T23:09:00.761Z,10.77
2023-01-11T23:11:54.464Z,10.93
2023-01-11T23:14:22.183Z,12.10
2023-01-11T23:16:50.071Z,12.20
2023-01-11T23:19:18.700Z,11.45
2023-01-11T23:21:46.162Z,11.05
2023-01-11T23:24:14.561Z,10.57
2023-01-11T23:26:41.438Z,10.48
2023-01-11T23:29:08.729Z,10.98
2023-01-11T23:31:35.533Z,11.07
2023-01-11T23:34:03.918Z,9.85
2023-01-11T23:36:33.156Z,11.50
2023-01-11T23:39:00.131Z,11.00
2023-01-11T23:41:45.543Z,10.60
2023-01-11T23:44:14.058Z,10.75
2023-01-11T23:47:00.046Z,10.38
2023-01-11T23:49:27.994Z,10.05
2023-01-11T23:51:55.643Z,10.50
2023-01-11T23:54:22.890Z,10.35
2023-01-11T23:56:49.578Z,10.18
2023-01-11T23:59:16.345Z,10.57
